Etusivu
METAR-TAF:

METAR-TAF

Lentoasemat :

Cartersville Airport

Cartersville, Georgia, Yhdysvallat

Leveyspiiri: 34-07-42N, Pituuspiiri: 084-50-50W, korkeus merenpinnasta: 233 m

Tämänhetkinen sää

Tämä raportti tehtiin 28 minuuttia sitten, kello 15.08 UTC
Tuuli 6 kn idästä
Lämpötila 12°C
Kosteus 88%
Ilmanpaine 1015 hPa
Näkyvyys: 6.4 km
Hajonneita pilviä 2400 ft:n korkeudessa
Pilvistä 3100 ft:n korkeudessa
sadetta, utua

METAR: KVPC 191508Z AUTO 08006KT 4SM RA BR BKN024 OVC031 12/10 A2997 RMK AO2 P0005 T01220100

Aika: 11:36 (15:36 UTC)


TAF: puuttuu

Säähavainnot ja -ennusteet yli 4000 lentoasemalta (METAR- ja TAF-raportit).

Käytössä olevat sääasemat on merkitty karttaan keltaisilla ja punaisilla pisteillä.

Aseta hiiri pisteen päälle nähdäksesi sääaseman nimen.

Klikkaa sitten nähdäksesi säähavainnot ja -ennusteet.

Kartan vaihtaminen: klikkaa mustalla rastilla varustettuja vihreitä pisteitä, niin voit zoomata sisään; viivalla varustettua vihreää pistettä, niin voit zoomata ulos tai vihreitä nuolia, niin pääset viereisille kartoille.


METAR-TAF: